Pickwick Observed Data For Previous 48 Hours

Caption
Day and Hour Reservoir Elevation (behind dam)* Tailwater Elevation (below dam)* Average Hourly Discharge*
8/19/2018 1 AM CDT 413.30 359.22 21,835
8/19/2018 2 AM CDT 413.36 359.03 21,954
8/19/2018 3 AM CDT 413.35 358.90 22,107
8/19/2018 4 AM CDT 413.31 358.63 22,146
8/19/2018 5 AM CDT 413.36 358.49 22,437
8/19/2018 6 AM CDT 413.33 358.38 22,654
8/19/2018 7 AM CDT 413.34 358.35 22,790
8/19/2018 8 AM CDT 413.34 358.23 22,724
8/19/2018 9 AM CDT 413.36 358.19 22,448
8/19/2018 10 AM CDT 413.32 358.13 22,186
8/19/2018 11 AM CDT 413.36 358.08 22,197
8/19/2018 12 PM CDT 413.39 358.24 22,608
8/19/2018 1 PM CDT 413.21 358.85 33,863
8/19/2018 2 PM CDT 413.12 359.94 51,240
8/19/2018 3 PM CDT 413.23 361.12 61,414
8/19/2018 4 PM CDT 413.28 362.07 62,287
8/19/2018 5 PM CDT 413.27 362.56 62,279
8/19/2018 6 PM CDT 413.31 362.89 62,180
8/19/2018 7 PM CDT 413.30 362.96 62,204
8/19/2018 8 PM CDT 413.33 362.17 41,055
8/19/2018 9 PM CDT 413.40 361.16 30,667
8/19/2018 10 PM CDT 413.40 360.18 22,079
8/19/2018 11 PM CDT 413.42 359.45 21,960
8/20/2018 12 AM CDT 413.35 359.05 22,005
8/20/2018 1 AM CDT 413.29 358.80 22,120
8/20/2018 2 AM CDT 413.36 358.58 21,986
8/20/2018 3 AM CDT 413.37 358.44 22,055
8/20/2018 4 AM CDT 413.42 358.33 22,096
8/20/2018 5 AM CDT 413.40 358.32 22,135
8/20/2018 6 AM CDT 413.32 358.18 22,229
8/20/2018 7 AM CDT 413.32 358.24 22,951
8/20/2018 8 AM CDT 413.39 358.18 22,243
8/20/2018 9 AM CDT 413.38 358.25 22,059
8/20/2018 10 AM CDT 413.35 358.14 22,042
8/20/2018 11 AM CDT 413.29 358.06 22,087
8/20/2018 12 PM CDT 413.33 358.19 22,003
8/20/2018 1 PM CDT 413.34 358.05 23,610
8/20/2018 2 PM CDT 413.25 357.99 23,489
8/20/2018 3 PM CDT 413.32 357.93 22,147
8/20/2018 4 PM CDT 413.50 358.10 22,223
8/20/2018 5 PM CDT 413.52 358.23 27,256
8/20/2018 6 PM CDT 413.62 358.45 28,725
8/20/2018 7 PM CDT 413.73 358.52 28,701
8/20/2018 8 PM CDT 413.72 358.08 21,269
8/20/2018 9 PM CDT 413.80 357.80 20,690
8/20/2018 10 PM CDT 413.81 357.75 20,664
8/20/2018 11 PM CDT 413.81 357.70 20,717
8/21/2018 12 AM CDT 413.69 357.66 20,721
8/21/2018 1 AM CDT 413.65 357.59 19,807
8/21/2018 2 AM CDT 413.68 357.56 19,836
8/21/2018 3 AM CDT 413.74 357.55 19,860
8/21/2018 4 AM CDT 413.77 357.54 19,827

Elevations are in feet above sea level. Discharges are in cubic feet per second and are reported at the end of the hour.